• Join FlightAware (Why Join?)
  • Login
  • US Flag 
04:31PM EDT


 

Airport Tracker/Info


-or-


 

Live Flight TrackerFlight Track Log ✈ N39RC ✈ 07-Jul-2013 ✈ KEYW - KRSW

Flight Track Log - Related Links

Times and Time Zones

All times are in EDT time to prevent confusion due to time zone crossing. See the N39RC flight status page for this flight to view local times or setup timezone preferences in your user account.

Time Position Orientation Groundspeed Altitude Reporting Facility
EDT Latitude Longitude Course Direction KTS MPH feet Rate Location/Type
09:40AM 24.6861 -81.7225 North 207 238 7,300  Level Miami Center
09:41AM 24.7467 -81.7203 North 246 283 10,100 2,820 Climbing Miami Center
09:42AM 24.8175 -81.7231 358° North 246 283 13,000 2,880 Climbing Miami Center
09:43AM 24.8864 -81.7236 360° North 246 283 15,900 2,400 Climbing Miami Center
09:44AM 24.9868 -81.9500 North  Level FlightAware Approximate
09:44AM 24.9575 -81.7264 358° North 246 283 17,900  Level Miami Center
09:45AM 25.0581 -81.9500 North  Level FlightAware Approximate
09:45AM 25.0367 -81.7272 359° North 264 304 18,000  Level Miami Center
09:46AM 25.1203 -81.7281 359° North 281 323 18,000  Level Miami Center
09:47AM 25.2017 -81.7314 358° North 286 329 18,000  Level Miami Center
09:48AM 25.2831 -81.7325 359° North 286 329 18,000 -120 Level Miami Center
09:49AM 25.3644 -81.7333 359° North 286 329 17,800 -900 Descending Miami Center
09:50AM 25.4542 -81.7347 359° North 297 342 16,200 -2,100 Descending Miami Center
09:51AM 25.5458 -81.7383 358° North 314 361 13,600 -2,700 Descending Miami Center
09:52AM 25.6356 -81.7397 359° North 319 367 10,800 -1,860 Descending Miami Center
09:53AM 25.7192 -81.7361 North 310 357 9,900 -420 Descending Miami Center
09:54AM 25.7903 -81.7389 358° North 275 316 10,000 -360 Climbing Miami Center
09:55AM 25.8611 -81.7419 358° North 256 295 9,200 -1,200 Descending Miami Center
09:56AM 25.9361 -81.7428 359° North 256 295 7,700 -1,500 Descending Miami Center
09:57AM 26.0050 -81.7431 360° North 251 289 6,300 -1,440 Descending Miami Center
09:58AM 26.0761 -81.7461 358° North 251 289 4,900 -1,320 Descending Miami Center
09:59AM 26.1464 -81.7650 346° North 251 289 3,700 -960 Descending Miami Center
10:00AM 26.1925 -81.8203 313° West 236 272 3,000 -360 Descending Miami Center
10:01AM 26.2408 -81.8686 318° Northwest 236 272 3,000  Level Miami Center
10:03AM 26.3759 -81.8139 20° North  Level FlightAware Approximate
10:10AM 26.5333 -81.7500 358° North  Level FlightAware Approximate
10:11AM 26.5362 -81.7552 358° North  Level Estimated